createdAt,value
2019-02-19T00:01:43.317Z,14.67
2019-02-19T00:03:54.289Z,15.30
2019-02-19T00:05:59.943Z,13.87
2019-02-19T00:08:07.701Z,14.97
2019-02-19T00:10:15.005Z,12.80
2019-02-19T00:12:20.491Z,15.90
2019-02-19T00:14:27.819Z,11.90
2019-02-19T00:16:35.943Z,16.43
2019-02-19T00:18:42.569Z,10.97
2019-02-19T00:20:49.346Z,10.80
2019-02-19T00:22:57.259Z,13.50
2019-02-19T00:25:03.730Z,13.17
2019-02-19T00:27:09.576Z,15.07
2019-02-19T00:29:18.320Z,10.33
2019-02-19T00:31:23.707Z,12.93
2019-02-19T00:33:29.021Z,12.20
2019-02-19T00:35:41.988Z,10.90
2019-02-19T00:37:50.563Z,10.43
2019-02-19T00:39:55.600Z,11.07
2019-02-19T00:42:02.450Z,11.47
2019-02-19T00:44:09.406Z,12.37
2019-02-19T00:46:16.531Z,12.30
2019-02-19T00:48:23.828Z,10.33
2019-02-19T00:50:29.752Z,12.00
2019-02-19T00:52:35.642Z,11.53
2019-02-19T00:54:46.390Z,11.53
2019-02-19T00:56:55.071Z,9.73
2019-02-19T00:59:03.873Z,10.83
2019-02-19T01:01:11.922Z,13.47
2019-02-19T01:03:16.832Z,15.60
2019-02-19T01:05:23.755Z,13.70
2019-02-19T01:07:31.764Z,10.33
2019-02-19T01:09:40.236Z,11.00
2019-02-19T01:11:45.855Z,12.57
2019-02-19T01:13:56.698Z,11.00
2019-02-19T01:16:04.158Z,13.37
2019-02-19T01:18:16.949Z,10.13
2019-02-19T01:20:23.931Z,13.33
2019-02-19T01:22:31.691Z,10.37
2019-02-19T01:24:36.955Z,11.00
2019-02-19T01:26:55.263Z,10.77
2019-02-19T01:29:01.657Z,9.07
2019-02-19T01:31:09.894Z,13.10
2019-02-19T01:33:19.370Z,10.67
2019-02-19T01:35:25.883Z,14.07
2019-02-19T01:37:35.675Z,15.20
2019-02-19T01:39:43.979Z,13.03
2019-02-19T01:41:53.873Z,12.80
2019-02-19T01:44:00.419Z,13.37
2019-02-19T01:46:10.372Z,16.40
2019-02-19T01:48:22.516Z,13.83
2019-02-19T01:50:29.558Z,13.67
2019-02-19T01:52:36.517Z,14.93
2019-02-19T01:54:43.324Z,13.83
2019-02-19T01:56:49.428Z,13.67
2019-02-19T01:58:56.728Z,12.53
2019-02-19T02:01:02.663Z,13.07
2019-02-19T02:03:10.932Z,12.03
2019-02-19T02:05:16.949Z,11.37
2019-02-19T02:07:28.523Z,17.03
2019-02-19T02:09:38.183Z,13.17
2019-02-19T02:11:44.552Z,16.00
2019-02-19T02:13:51.130Z,17.30
2019-02-19T02:15:58.995Z,12.27
2019-02-19T02:18:07.482Z,12.13
2019-02-19T02:20:15.322Z,14.00
2019-02-19T02:22:22.704Z,12.50
2019-02-19T02:26:53.497Z,17.03
2019-02-19T02:29:02.448Z,13.97
2019-02-19T02:31:08.548Z,12.97
2019-02-19T02:33:15.518Z,13.27
2019-02-19T02:35:33.245Z,18.10
2019-02-19T02:37:41.630Z,14.10
2019-02-19T02:39:50.198Z,14.20
2019-02-19T02:42:01.786Z,14.67
2019-02-19T02:44:17.195Z,17.37
2019-02-19T02:46:25.654Z,16.20
2019-02-19T02:48:38.871Z,14.07
2019-02-19T02:50:47.896Z,13.27
2019-02-19T02:52:54.004Z,16.03
2019-02-19T02:55:00.509Z,13.33
2019-02-19T02:57:08.636Z,14.67
2019-02-19T02:59:15.843Z,15.50
2019-02-19T03:01:24.349Z,13.17
2019-02-19T03:03:35.372Z,14.53
2019-02-19T03:05:46.656Z,17.20
2019-02-19T03:08:09.106Z,11.90
2019-02-19T03:10:18.016Z,14.63
2019-02-19T03:12:24.111Z,15.20
2019-02-19T03:14:31.894Z,15.20
2019-02-19T03:16:46.218Z,16.27
2019-02-19T03:18:52.365Z,14.77
2019-02-19T03:20:57.685Z,12.07
2019-02-19T03:23:06.177Z,14.37
2019-02-19T03:25:11.582Z,17.27
2019-02-19T03:27:20.159Z,17.73
2019-02-19T03:29:28.369Z,16.13
2019-02-19T03:31:34.086Z,15.60
2019-02-19T03:33:38.869Z,15.43
2019-02-19T03:35:48.598Z,17.13
2019-02-19T03:37:56.230Z,16.20
2019-02-19T03:40:04.225Z,14.47
2019-02-19T03:42:16.467Z,14.47
2019-02-19T03:44:21.573Z,16.20
2019-02-19T03:46:30.403Z,13.60
2019-02-19T03:48:39.519Z,18.93
2019-02-19T03:50:44.429Z,15.47
2019-02-19T03:52:51.553Z,14.43
2019-02-19T03:54:57.251Z,15.33
2019-02-19T03:57:03.803Z,14.30
2019-02-19T03:59:09.074Z,14.80
2019-02-19T04:01:14.862Z,15.30
2019-02-19T04:03:21.090Z,13.87
2019-02-19T04:05:28.511Z,17.40
2019-02-19T04:07:34.355Z,16.87
2019-02-19T04:09:41.161Z,11.67
2019-02-19T04:11:46.155Z,13.97
2019-02-19T04:13:51.867Z,15.53
2019-02-19T04:15:57.443Z,13.23
2019-02-19T04:18:02.766Z,12.73
2019-02-19T04:20:08.110Z,16.03
2019-02-19T04:22:15.467Z,14.13
2019-02-19T04:24:21.177Z,12.57
2019-02-19T04:26:26.691Z,12.90
2019-02-19T04:28:34.543Z,11.10
2019-02-19T04:30:39.852Z,16.17
2019-02-19T04:32:44.415Z,14.33
2019-02-19T04:34:50.363Z,14.40
2019-02-19T04:36:55.647Z,12.37
2019-02-19T04:39:00.841Z,14.27
2019-02-19T04:41:07.825Z,13.80
2019-02-19T04:43:14.766Z,11.77
2019-02-19T04:45:29.438Z,13.43
2019-02-19T04:47:53.120Z,14.57
2019-02-19T04:50:13.488Z,13.33
2019-02-19T04:52:54.315Z,12.10
2019-02-19T04:55:23.951Z,14.53
2019-02-19T04:57:38.527Z,14.87
2019-02-19T04:59:59.631Z,16.00
2019-02-19T05:04:09.569Z,15.73
2019-02-19T05:06:18.122Z,13.83
2019-02-19T05:08:25.317Z,13.67
2019-02-19T05:10:33.361Z,11.63
2019-02-19T05:12:40.108Z,14.43
2019-02-19T05:14:47.201Z,14.10
2019-02-19T05:16:52.690Z,12.93
2019-02-19T05:18:58.757Z,13.60
2019-02-19T05:21:05.264Z,13.83
2019-02-19T05:23:11.658Z,12.87
2019-02-19T05:25:17.240Z,10.87
2019-02-19T05:27:22.972Z,15.00
2019-02-19T05:29:29.110Z,16.63
2019-02-19T05:31:36.425Z,13.10
2019-02-19T05:33:41.703Z,16.50
2019-02-19T05:35:49.902Z,15.90
2019-02-19T05:37:56.608Z,13.73
2019-02-19T05:40:02.101Z,13.53
2019-02-19T05:42:07.691Z,14.30
2019-02-19T05:44:20.139Z,13.50
2019-02-19T05:46:27.792Z,14.70
2019-02-19T05:48:33.476Z,15.43
2019-02-19T05:50:38.759Z,13.50
2019-02-19T05:52:45.022Z,18.17
2019-02-19T05:54:50.866Z,13.40
2019-02-19T05:56:58.007Z,16.63
2019-02-19T05:59:05.716Z,18.03
2019-02-19T06:01:16.463Z,15.80
2019-02-19T06:03:22.672Z,15.03
2019-02-19T06:05:32.122Z,16.73
2019-02-19T06:07:38.629Z,18.43
2019-02-19T06:09:45.314Z,15.07
2019-02-19T06:11:52.955Z,12.70
2019-02-19T06:13:59.004Z,16.30
2019-02-19T06:16:05.171Z,16.47
2019-02-19T06:18:17.221Z,15.17
2019-02-19T06:20:23.481Z,12.70
2019-02-19T06:22:30.897Z,14.33
2019-02-19T06:24:42.085Z,14.80
2019-02-19T06:26:51.827Z,17.10
2019-02-19T06:28:58.702Z,16.30
2019-02-19T06:31:05.506Z,19.23
2019-02-19T06:33:14.429Z,16.07
2019-02-19T06:35:19.608Z,16.10
2019-02-19T06:37:25.256Z,20.40
2019-02-19T06:39:30.496Z,17.73
2019-02-19T06:41:35.424Z,16.07
2019-02-19T06:43:45.668Z,22.33
2019-02-19T06:45:52.452Z,14.03
2019-02-19T06:47:59.197Z,18.17
2019-02-19T06:50:07.316Z,17.90
2019-02-19T06:52:12.508Z,15.17
2019-02-19T06:54:17.681Z,17.87
2019-02-19T06:56:31.196Z,12.00
2019-02-19T06:58:38.344Z,18.40
2019-02-19T07:00:46.944Z,15.90
2019-02-19T07:03:21.985Z,15.30
2019-02-19T07:05:27.260Z,16.67
2019-02-19T07:07:32.541Z,18.40
2019-02-19T07:09:46.676Z,15.17
2019-02-19T07:11:51.621Z,21.90
2019-02-19T07:13:56.868Z,21.03
2019-02-19T07:16:09.765Z,19.23
2019-02-19T07:18:15.935Z,16.17
2019-02-19T07:20:21.698Z,13.97
2019-02-19T07:22:27.614Z,21.37
2019-02-19T07:24:32.524Z,15.63
2019-02-19T07:26:38.802Z,20.83
2019-02-19T07:28:45.265Z,17.23
2019-02-19T07:30:53.340Z,16.83
2019-02-19T07:33:01.122Z,17.97
2019-02-19T07:35:11.951Z,16.70
2019-02-19T07:37:17.391Z,18.27
2019-02-19T07:39:24.555Z,16.50
2019-02-19T07:41:31.991Z,19.20
2019-02-19T07:43:43.793Z,17.07
2019-02-19T07:46:07.475Z,15.93
2019-02-19T07:48:25.096Z,16.20
2019-02-19T07:50:31.336Z,15.03
2019-02-19T07:52:47.845Z,18.97
2019-02-19T07:55:06.369Z,16.37
2019-02-19T07:57:19.676Z,26.30
2019-02-19T07:59:38.277Z,16.87
2019-02-19T08:01:53.931Z,15.33
2019-02-19T08:04:10.632Z,16.43
2019-02-19T08:06:19.381Z,15.40
2019-02-19T08:08:31.953Z,19.43
2019-02-19T08:10:39.727Z,14.37
2019-02-19T08:12:49.685Z,19.03
2019-02-19T08:15:00.658Z,14.33
2019-02-19T08:17:08.500Z,19.57
2019-02-19T08:19:28.785Z,21.27
2019-02-19T08:21:51.374Z,21.83
2019-02-19T08:23:58.596Z,16.30
2019-02-19T08:26:05.964Z,17.37
2019-02-19T08:28:12.890Z,17.27
2019-02-19T08:30:18.730Z,15.10
2019-02-19T08:32:28.491Z,18.13
2019-02-19T08:34:38.496Z,15.27
2019-02-19T08:36:43.564Z,19.50
2019-02-19T08:38:52.684Z,19.40
2019-02-19T08:40:59.465Z,20.90
2019-02-19T08:43:10.304Z,19.43
2019-02-19T08:45:33.174Z,23.50
2019-02-19T08:47:51.899Z,17.23
2019-02-19T08:50:08.286Z,26.40
2019-02-19T08:52:24.465Z,21.27
2019-02-19T08:54:31.352Z,23.93
2019-02-19T08:56:45.740Z,25.50
2019-02-19T08:59:01.155Z,17.40
2019-02-19T09:01:08.385Z,23.87
2019-02-19T09:03:23.109Z,20.57
2019-02-19T09:05:30.404Z,18.80
2019-02-19T09:07:40.959Z,26.03
2019-02-19T09:09:47.502Z,17.80
2019-02-19T09:11:56.672Z,20.13
2019-02-19T09:16:10.451Z,22.10
2019-02-19T09:18:28.000Z,27.13
2019-02-19T09:20:33.880Z,25.07
2019-02-19T09:22:43.762Z,20.43
2019-02-19T09:24:58.157Z,29.90
2019-02-19T09:29:57.233Z,26.37
2019-02-19T09:32:13.736Z,20.40
2019-02-19T09:34:30.529Z,27.97
2019-02-19T09:36:47.236Z,22.67
2019-02-19T09:39:05.313Z,24.57
2019-02-19T09:41:22.465Z,24.77
2019-02-19T09:43:39.363Z,26.93
2019-02-19T09:45:56.272Z,25.17
2019-02-19T09:48:17.032Z,31.03
2019-02-19T09:50:36.239Z,26.70
2019-02-19T09:52:59.754Z,21.73
2019-02-19T09:55:15.963Z,29.50
2019-02-19T09:57:32.747Z,27.23
2019-02-19T10:00:09.514Z,23.07
2019-02-19T10:02:26.601Z,27.13
2019-02-19T10:04:44.680Z,27.53
2019-02-19T10:07:02.081Z,25.20
2019-02-19T10:10:20.223Z,28.40
2019-02-19T10:12:00.717Z,23.43
2019-02-19T10:14:46.665Z,22.90
2019-02-19T10:17:02.597Z,29.43
2019-02-19T10:19:20.511Z,22.23
2019-02-19T10:24:16.118Z,25.07
2019-02-19T10:26:32.861Z,27.13
2019-02-19T10:29:09.182Z,27.10
2019-02-19T10:31:33.498Z,25.63
2019-02-19T10:36:30.954Z,28.47
2019-02-19T10:38:54.514Z,28.53
2019-02-19T10:41:13.088Z,26.17
2019-02-19T10:43:34.923Z,28.13
2019-02-19T10:45:51.346Z,29.30
2019-02-19T10:50:25.554Z,25.07
2019-02-19T10:52:43.104Z,31.43
2019-02-19T10:54:59.829Z,24.17
2019-02-19T10:57:25.062Z,27.43
2019-02-19T10:59:59.767Z,24.63
2019-02-19T11:02:47.157Z,42.00
2019-02-19T11:04:55.012Z,41.53
2019-02-19T11:07:12.502Z,24.17
2019-02-19T11:09:33.334Z,26.10
2019-02-19T11:12:07.088Z,26.93
2019-02-19T11:14:16.334Z,25.80
2019-02-19T11:16:38.499Z,25.00
2019-02-19T11:18:59.189Z,21.97
2019-02-19T11:21:19.631Z,22.13
2019-02-19T11:23:35.863Z,23.40
2019-02-19T11:25:57.312Z,27.07
2019-02-19T11:28:13.358Z,19.80
2019-02-19T11:30:20.410Z,26.73
2019-02-19T11:35:47.066Z,23.67
2019-02-19T11:38:12.924Z,19.53
2019-02-19T11:40:18.735Z,21.77
2019-02-19T11:42:45.164Z,22.00
2019-02-19T11:45:14.608Z,23.77
2019-02-19T11:47:32.316Z,22.63
2019-02-19T11:49:48.830Z,22.10
2019-02-19T11:52:08.749Z,18.27
2019-02-19T11:55:02.039Z,22.77
2019-02-19T11:59:15.326Z,16.83
2019-02-19T12:04:13.727Z,19.07
2019-02-19T12:06:26.267Z,13.70
2019-02-19T12:08:47.419Z,14.63
2019-02-19T12:11:11.325Z,17.53
2019-02-19T12:13:25.427Z,14.10
2019-02-19T12:15:35.113Z,19.43
2019-02-19T12:17:44.546Z,19.13
2019-02-19T12:20:02.903Z,18.33
2019-02-19T12:22:26.513Z,22.47
2019-02-19T12:24:43.631Z,18.63
2019-02-19T12:26:58.790Z,19.40
2019-02-19T12:29:26.371Z,17.43
2019-02-19T12:31:33.399Z,18.17
2019-02-19T12:33:57.535Z,19.10
2019-02-19T12:36:13.308Z,14.40
2019-02-19T12:38:41.416Z,18.53
2019-02-19T12:40:51.585Z,15.57
2019-02-19T12:43:25.348Z,16.10
2019-02-19T12:45:42.541Z,13.90
2019-02-19T12:47:59.579Z,15.10
2019-02-19T12:50:17.552Z,15.83
2019-02-19T12:52:30.665Z,16.87
2019-02-19T12:54:41.492Z,17.57
2019-02-19T12:56:56.050Z,17.63
2019-02-19T12:59:08.725Z,16.67
2019-02-19T13:01:37.784Z,14.53
2019-02-19T13:03:55.894Z,14.30
2019-02-19T13:06:03.317Z,11.13
2019-02-19T13:08:12.882Z,12.73
2019-02-19T13:10:18.073Z,12.43
2019-02-19T13:12:28.722Z,11.87
2019-02-19T13:14:59.835Z,13.47
2019-02-19T13:17:29.291Z,17.03
2019-02-19T13:19:32.970Z,12.43
2019-02-19T13:21:57.637Z,9.03
2019-02-19T13:24:24.625Z,12.23
2019-02-19T13:26:57.399Z,13.47
2019-02-19T13:29:13.342Z,11.80
2019-02-19T13:31:26.292Z,12.13
2019-02-19T13:33:40.078Z,12.57
2019-02-19T13:36:14.357Z,14.73
2019-02-19T13:38:34.218Z,14.47
2019-02-19T13:40:49.841Z,12.33
2019-02-19T13:42:57.729Z,12.10
2019-02-19T13:45:24.926Z,13.70
2019-02-19T13:47:34.407Z,10.40
2019-02-19T13:49:53.332Z,11.57
2019-02-19T13:52:36.736Z,8.13
2019-02-19T13:55:17.797Z,8.53
2019-02-19T13:57:37.089Z,7.43
2019-02-19T14:00:02.080Z,5.03
2019-02-19T14:02:17.268Z,5.67
2019-02-19T14:04:46.290Z,5.47
2019-02-19T14:06:56.254Z,9.03
2019-02-19T14:09:26.285Z,6.47
2019-02-19T14:11:39.795Z,7.87
2019-02-19T14:14:05.606Z,6.67
2019-02-19T14:16:27.406Z,7.60
2019-02-19T14:19:01.470Z,8.37
2019-02-19T14:21:34.547Z,3.30
2019-02-19T14:24:07.532Z,5.87
2019-02-19T14:27:10.347Z,6.77
2019-02-19T14:29:40.338Z,6.10
2019-02-19T14:32:28.045Z,5.50
2019-02-19T14:34:51.558Z,6.77
2019-02-19T14:37:21.024Z,5.13
2019-02-19T14:39:50.534Z,3.77
2019-02-19T14:42:33.417Z,4.93
2019-02-19T14:45:05.653Z,5.57
2019-02-19T14:47:55.840Z,6.83
2019-02-19T14:50:29.228Z,8.00
2019-02-19T14:52:54.387Z,7.03
2019-02-19T14:55:41.339Z,8.43
2019-02-19T14:58:09.092Z,8.47
2019-02-19T15:01:04.333Z,5.67
2019-02-19T15:03:46.630Z,8.87
2019-02-19T15:06:22.438Z,6.97
2019-02-19T15:08:58.620Z,6.27
2019-02-19T15:11:31.812Z,7.07
2019-02-19T15:14:09.269Z,3.57
2019-02-19T15:16:53.448Z,4.53
2019-02-19T15:19:25.906Z,6.80
2019-02-19T15:22:01.732Z,7.40
2019-02-19T15:24:23.787Z,5.57
2019-02-19T15:26:55.789Z,6.63
2019-02-19T15:29:22.001Z,4.63
2019-02-19T15:31:52.692Z,2.90
2019-02-19T15:34:17.511Z,4.77
2019-02-19T15:37:02.209Z,2.73
2019-02-19T15:46:03.178Z,5.40
2019-02-19T15:48:46.266Z,5.13
2019-02-19T15:51:18.896Z,4.93
2019-02-19T15:53:57.697Z,5.80
2019-02-19T15:56:20.711Z,4.90
2019-02-19T15:58:25.502Z,3.97
2019-02-19T16:00:43.670Z,6.00
2019-02-19T16:03:20.615Z,7.20
2019-02-19T16:05:45.916Z,5.20
2019-02-19T16:08:01.294Z,4.17
2019-02-19T16:10:36.035Z,3.63
2019-02-19T16:13:04.027Z,6.07
2019-02-19T16:15:35.426Z,4.50
2019-02-19T16:18:08.358Z,4.87
2019-02-19T16:20:45.195Z,5.23
2019-02-19T16:23:09.710Z,5.47
2019-02-19T16:25:42.464Z,5.23
2019-02-19T16:28:21.736Z,4.53
2019-02-19T16:30:54.889Z,8.43
2019-02-19T16:33:08.967Z,3.30
2019-02-19T16:35:24.739Z,5.57
2019-02-19T16:37:53.857Z,5.87
2019-02-19T16:40:28.817Z,6.00
2019-02-19T16:42:55.800Z,3.50
2019-02-19T16:45:32.731Z,4.50
2019-02-19T16:48:03.245Z,5.20
2019-02-19T16:50:37.617Z,5.97
2019-02-19T16:53:04.832Z,7.83
2019-02-19T16:55:40.605Z,5.87
2019-02-19T16:58:09.113Z,6.80
2019-02-19T17:00:57.111Z,5.10
2019-02-19T17:03:22.094Z,7.37
2019-02-19T17:05:50.336Z,6.77
2019-02-19T17:08:15.213Z,8.00
2019-02-19T17:10:45.560Z,5.27
2019-02-19T17:13:32.863Z,5.67
2019-02-19T17:16:07.523Z,6.80
2019-02-19T17:18:31.433Z,7.13
2019-02-19T17:20:55.483Z,7.10
2019-02-19T17:23:17.231Z,5.13
2019-02-19T17:25:50.730Z,6.87
2019-02-19T17:28:12.181Z,6.47
2019-02-19T17:30:56.692Z,7.50
2019-02-19T17:33:11.930Z,7.63
2019-02-19T17:35:31.330Z,5.23
2019-02-19T17:38:01.330Z,6.00
2019-02-19T17:40:25.848Z,6.97
2019-02-19T17:42:56.833Z,6.20
2019-02-19T17:45:24.885Z,9.57
2019-02-19T17:47:50.263Z,7.30
2019-02-19T17:50:23.491Z,8.47
2019-02-19T17:52:57.548Z,7.20
2019-02-19T17:55:21.454Z,10.60
2019-02-19T17:57:51.423Z,10.57
2019-02-19T18:00:24.653Z,7.70
2019-02-19T18:02:54.534Z,6.80
2019-02-19T18:05:31.048Z,7.33
2019-02-19T18:08:07.381Z,8.83
2019-02-19T18:10:30.341Z,7.67
2019-02-19T18:12:55.436Z,8.83
2019-02-19T18:15:18.701Z,8.90
2019-02-19T18:17:55.824Z,7.53
2019-02-19T18:20:06.521Z,11.57
2019-02-19T18:22:19.532Z,8.50
2019-02-19T18:24:42.354Z,8.83
2019-02-19T18:26:59.361Z,11.77
2019-02-19T18:29:13.555Z,7.80
2019-02-19T18:31:24.384Z,9.97
2019-02-19T18:33:32.344Z,9.97
2019-02-19T18:38:17.276Z,7.73
2019-02-19T18:40:35.170Z,7.77
2019-02-19T18:43:04.410Z,12.37
2019-02-19T18:45:26.909Z,8.60
2019-02-19T18:47:35.844Z,13.67
2019-02-19T18:49:51.966Z,10.50
2019-02-19T18:52:05.526Z,9.33
2019-02-19T18:54:20.632Z,10.23
2019-02-19T18:56:36.569Z,10.13
2019-02-19T18:58:45.856Z,9.70
2019-02-19T19:01:04.299Z,9.10
2019-02-19T19:03:13.159Z,7.40
2019-02-19T19:05:23.965Z,10.13
2019-02-19T19:07:45.756Z,8.30
2019-02-19T19:12:28.431Z,8.57
2019-02-19T19:14:55.779Z,8.93
2019-02-19T19:17:09.238Z,11.53
2019-02-19T19:19:41.578Z,10.53
2019-02-19T19:22:01.655Z,10.23
2019-02-19T19:24:13.559Z,12.40
2019-02-19T19:26:19.378Z,9.37
2019-02-19T19:28:27.312Z,8.20
2019-02-19T19:30:43.808Z,12.83
2019-02-19T19:32:54.204Z,11.23
2019-02-19T19:35:03.552Z,8.13
2019-02-19T19:37:09.248Z,9.50
2019-02-19T19:39:20.408Z,10.07
2019-02-19T19:41:29.154Z,9.97
2019-02-19T19:43:41.163Z,10.00
2019-02-19T19:45:52.813Z,8.53
2019-02-19T19:48:06.524Z,11.77
2019-02-19T19:50:18.563Z,7.40
2019-02-19T19:52:31.299Z,7.50
2019-02-19T19:54:50.800Z,8.27
2019-02-19T19:57:01.913Z,9.03
2019-02-19T19:59:15.541Z,9.07
2019-02-19T20:01:26.804Z,9.57
2019-02-19T20:03:42.106Z,8.80
2019-02-19T20:06:00.729Z,9.47
2019-02-19T20:08:07.282Z,11.43
2019-02-19T20:10:21.332Z,14.97
2019-02-19T20:12:30.083Z,12.13
2019-02-19T20:14:48.936Z,17.53
2019-02-19T20:16:55.557Z,13.07
2019-02-19T20:19:01.140Z,9.73
2019-02-19T20:21:08.727Z,13.37
2019-02-19T20:23:21.318Z,14.40
2019-02-19T20:25:35.883Z,9.77
2019-02-19T20:27:43.798Z,8.47
2019-02-19T20:29:51.117Z,10.00
2019-02-19T20:32:02.011Z,10.23
2019-02-19T20:34:10.316Z,10.37
2019-02-19T20:36:24.241Z,8.93
2019-02-19T20:38:43.158Z,9.60
2019-02-19T20:40:58.917Z,9.97
2019-02-19T20:43:21.057Z,9.23
2019-02-19T20:45:35.635Z,11.60
2019-02-19T20:47:54.034Z,10.90
2019-02-19T20:50:03.072Z,9.13
2019-02-19T20:52:11.012Z,11.50
2019-02-19T20:54:18.823Z,12.87
2019-02-19T20:56:28.706Z,10.10
2019-02-19T20:58:42.404Z,10.30
2019-02-19T21:01:13.015Z,12.97
2019-02-19T21:03:24.093Z,11.50
2019-02-19T21:05:44.166Z,9.07
2019-02-19T21:07:52.700Z,10.27
2019-02-19T21:10:38.633Z,13.83
2019-02-19T21:12:45.837Z,13.40
2019-02-19T21:15:04.745Z,8.93
2019-02-19T21:17:16.781Z,11.97
2019-02-19T21:19:35.755Z,12.20
2019-02-19T21:21:45.165Z,12.07
2019-02-19T21:23:59.278Z,12.73
2019-02-19T21:26:21.333Z,12.00
2019-02-19T21:28:32.043Z,12.10
2019-02-19T21:30:49.646Z,12.80
2019-02-19T21:32:57.570Z,11.27
2019-02-19T21:35:26.592Z,14.63
2019-02-19T21:38:02.881Z,12.53
2019-02-19T21:40:16.033Z,11.23
2019-02-19T21:42:25.437Z,14.50
2019-02-19T21:44:41.496Z,13.10
2019-02-19T21:46:48.142Z,11.73
2019-02-19T21:48:59.025Z,11.40
2019-02-19T21:51:09.367Z,16.73
2019-02-19T21:53:24.170Z,11.57
2019-02-19T21:55:35.282Z,13.43
2019-02-19T21:57:50.377Z,11.33
2019-02-19T22:00:02.729Z,13.07
2019-02-19T22:02:16.092Z,18.90
2019-02-19T22:04:17.048Z,14.03
2019-02-19T22:06:35.823Z,14.63
2019-02-19T22:08:42.189Z,13.07
2019-02-19T22:10:56.284Z,13.27
2019-02-19T22:13:03.962Z,13.33
2019-02-19T22:15:14.776Z,12.60
2019-02-19T22:17:23.345Z,15.63
2019-02-19T22:19:37.198Z,12.47
2019-02-19T22:22:02.995Z,14.73
2019-02-19T22:24:04.919Z,12.20
2019-02-19T22:26:12.950Z,13.57
2019-02-19T22:28:23.197Z,13.90
2019-02-19T22:30:31.625Z,16.80
2019-02-19T22:32:40.121Z,16.83
2019-02-19T22:34:55.516Z,16.20
2019-02-19T22:36:57.964Z,11.90
2019-02-19T22:39:15.077Z,16.10
2019-02-19T22:41:23.593Z,12.00
2019-02-19T22:43:33.697Z,16.03
2019-02-19T22:45:39.522Z,14.43
2019-02-19T22:47:53.190Z,15.13
2019-02-19T22:49:54.624Z,18.47
2019-02-19T22:52:01.750Z,12.73
2019-02-19T22:54:31.008Z,12.67
2019-02-19T22:56:42.492Z,12.83
2019-02-19T22:58:48.495Z,17.30
2019-02-19T23:01:16.485Z,14.70
2019-02-19T23:03:27.833Z,14.67
2019-02-19T23:05:38.541Z,13.80
2019-02-19T23:07:45.884Z,11.77
2019-02-19T23:10:01.349Z,13.40
2019-02-19T23:12:12.231Z,13.13
2019-02-19T23:14:45.283Z,18.13
2019-02-19T23:17:02.453Z,13.17
2019-02-19T23:19:24.792Z,16.87
2019-02-19T23:21:35.359Z,13.73
2019-02-19T23:24:02.394Z,13.73
2019-02-19T23:26:14.488Z,15.00
2019-02-19T23:28:39.362Z,11.87
2019-02-19T23:33:17.536Z,12.33
2019-02-19T23:36:10.064Z,12.67
2019-02-19T23:38:17.008Z,15.47
2019-02-19T23:40:28.421Z,17.13
2019-02-19T23:42:43.824Z,16.63
2019-02-19T23:45:04.603Z,14.43
2019-02-19T23:47:03.399Z,12.13
2019-02-19T23:49:20.894Z,12.60
2019-02-19T23:52:02.161Z,13.07
2019-02-19T23:53:53.402Z,15.47
2019-02-19T23:56:06.765Z,16.10
2019-02-19T23:58:24.880Z,11.10
